sensor_id;sensor_type;location;lat;lon;timestamp;P1;durP1;ratioP1;P2;durP2;ratioP2
65535;SDS011;52145;49.342;9.116;2023-05-10T00:00:07;0.55;;;0.55;;
65535;SDS011;52145;49.342;9.116;2023-05-10T00:02:34;2.25;;;0.90;;
65535;SDS011;52145;49.342;9.116;2023-05-10T00:05:00;1.90;;;1.00;;
65535;SDS011;52145;49.342;9.116;2023-05-10T00:07:26;1.15;;;0.80;;
65535;SDS011;52145;49.342;9.116;2023-05-10T00:09:51;2.35;;;0.90;;
65535;SDS011;52145;49.342;9.116;2023-05-10T00:12:18;1.63;;;0.75;;
65535;SDS011;52145;49.342;9.116;2023-05-10T00:14:44;1.00;;;0.80;;
65535;SDS011;52145;49.342;9.116;2023-05-10T00:17:10;3.25;;;0.98;;
65535;SDS011;52145;49.342;9.116;2023-05-10T00:19:36;1.42;;;1.27;;
65535;SDS011;52145;49.342;9.116;2023-05-10T00:22:02;1.50;;;1.20;;
65535;SDS011;52145;49.342;9.116;2023-05-10T00:24:28;0.70;;;0.70;;
65535;SDS011;52145;49.342;9.116;2023-05-10T00:26:53;2.85;;;1.05;;
65535;SDS011;52145;49.342;9.116;2023-05-10T00:29:19;2.22;;;1.15;;
65535;SDS011;52145;49.342;9.116;2023-05-10T00:31:45;1.00;;;0.70;;
65535;SDS011;52145;49.342;9.116;2023-05-10T00:34:11;2.03;;;0.90;;
65535;SDS011;52145;49.342;9.116;2023-05-10T00:36:37;1.58;;;0.90;;
65535;SDS011;52145;49.342;9.116;2023-05-10T00:39:03;2.60;;;1.00;;
65535;SDS011;52145;49.342;9.116;2023-05-10T00:41:29;2.15;;;0.90;;
65535;SDS011;52145;49.342;9.116;2023-05-10T00:43:58;2.45;;;1.00;;
65535;SDS011;52145;49.342;9.116;2023-05-10T00:46:25;1.65;;;0.90;;
65535;SDS011;52145;49.342;9.116;2023-05-10T00:48:51;1.42;;;0.90;;
65535;SDS011;52145;49.342;9.116;2023-05-10T00:51:18;1.15;;;0.95;;
65535;SDS011;52145;49.342;9.116;2023-05-10T00:53:45;2.15;;;0.98;;
65535;SDS011;52145;49.342;9.116;2023-05-10T00:56:11;2.25;;;0.80;;
65535;SDS011;52145;49.342;9.116;2023-05-10T00:58:37;2.03;;;0.93;;
65535;SDS011;52145;49.342;9.116;2023-05-10T01:01:04;1.10;;;0.77;;
65535;SDS011;52145;49.342;9.116;2023-05-10T01:03:30;0.93;;;0.77;;
65535;SDS011;52145;49.342;9.116;2023-05-10T01:05:56;1.23;;;0.80;;
65535;SDS011;52145;49.342;9.116;2023-05-10T01:08:23;1.15;;;0.90;;
65535;SDS011;52145;49.342;9.116;2023-05-10T01:10:49;1.15;;;1.05;;
65535;SDS011;52145;49.342;9.116;2023-05-10T01:13:37;0.95;;;0.80;;
65535;SDS011;52145;49.342;9.116;2023-05-10T01:16:02;1.23;;;0.98;;
65535;SDS011;52145;49.342;9.116;2023-05-10T01:18:29;0.77;;;0.70;;
65535;SDS011;52145;49.342;9.116;2023-05-10T01:20:59;4.22;;;1.05;;
65535;SDS011;52145;49.342;9.116;2023-05-10T01:23:31;2.90;;;1.33;;
65535;SDS011;52145;49.342;9.116;2023-05-10T01:26:07;1.55;;;0.90;;
65535;SDS011;52145;49.342;9.116;2023-05-10T01:31:26;4.65;;;0.98;;
65535;SDS011;52145;49.342;9.116;2023-05-10T01:33:59;15.13;;;1.67;;
65535;SDS011;52145;49.342;9.116;2023-05-10T01:36:30;1.30;;;0.70;;
65535;SDS011;52145;49.342;9.116;2023-05-10T01:39:16;2.13;;;1.00;;
65535;SDS011;52145;49.342;9.116;2023-05-10T01:41:51;1.55;;;0.93;;
65535;SDS011;52145;49.342;9.116;2023-05-10T01:44:35;1.80;;;0.63;;
65535;SDS011;52145;49.342;9.116;2023-05-10T01:47:17;1.17;;;0.90;;
65535;SDS011;52145;49.342;9.116;2023-05-10T01:49:45;1.27;;;1.00;;
65535;SDS011;52145;49.342;9.116;2023-05-10T01:52:12;1.02;;;0.90;;
65535;SDS011;52145;49.342;9.116;2023-05-10T01:54:41;2.38;;;0.70;;
65535;SDS011;52145;49.342;9.116;2023-05-10T01:57:08;0.90;;;0.70;;
65535;SDS011;52145;49.342;9.116;2023-05-10T01:59:37;0.95;;;0.90;;
65535;SDS011;52145;49.342;9.116;2023-05-10T02:02:05;1.25;;;0.85;;
65535;SDS011;52145;49.342;9.116;2023-05-10T02:04:32;1.85;;;1.15;;
65535;SDS011;52145;49.342;9.116;2023-05-10T02:07:00;0.80;;;0.80;;
65535;SDS011;52145;49.342;9.116;2023-05-10T02:09:27;2.15;;;0.85;;
65535;SDS011;52145;49.342;9.116;2023-05-10T02:11:54;4.68;;;0.80;;
65535;SDS011;52145;49.342;9.116;2023-05-10T02:14:21;0.82;;;0.80;;
65535;SDS011;52145;49.342;9.116;2023-05-10T02:16:49;1.73;;;0.90;;
65535;SDS011;52145;49.342;9.116;2023-05-10T02:19:16;1.42;;;1.02;;
65535;SDS011;52145;49.342;9.116;2023-05-10T02:21:43;2.85;;;1.00;;
65535;SDS011;52145;49.342;9.116;2023-05-10T02:24:10;1.38;;;0.90;;
65535;SDS011;52145;49.342;9.116;2023-05-10T02:26:36;1.88;;;1.08;;
65535;SDS011;52145;49.342;9.116;2023-05-10T02:29:03;1.45;;;1.00;;
65535;SDS011;52145;49.342;9.116;2023-05-10T02:31:31;1.73;;;1.30;;
65535;SDS011;52145;49.342;9.116;2023-05-10T02:33:58;2.95;;;1.20;;
65535;SDS011;52145;49.342;9.116;2023-05-10T02:36:24;1.85;;;1.00;;
65535;SDS011;52145;49.342;9.116;2023-05-10T02:38:52;3.33;;;0.98;;
65535;SDS011;52145;49.342;9.116;2023-05-10T02:41:19;2.22;;;0.90;;
65535;SDS011;52145;49.342;9.116;2023-05-10T02:43:47;1.85;;;1.17;;
65535;SDS011;52145;49.342;9.116;2023-05-10T02:46:15;1.30;;;1.10;;
65535;SDS011;52145;49.342;9.116;2023-05-10T02:48:41;1.95;;;1.30;;
65535;SDS011;52145;49.342;9.116;2023-05-10T02:51:07;3.20;;;1.40;;
65535;SDS011;52145;49.342;9.116;2023-05-10T02:53:34;1.45;;;1.10;;
65535;SDS011;52145;49.342;9.116;2023-05-10T02:56:03;1.45;;;1.00;;
65535;SDS011;52145;49.342;9.116;2023-05-10T02:58:32;3.55;;;1.23;;
65535;SDS011;52145;49.342;9.116;2023-05-10T03:00:57;1.45;;;1.27;;
65535;SDS011;52145;49.342;9.116;2023-05-10T03:03:23;1.70;;;1.30;;
65535;SDS011;52145;49.342;9.116;2023-05-10T03:05:49;3.65;;;1.50;;
65535;SDS011;52145;49.342;9.116;2023-05-10T03:08:15;1.30;;;1.20;;
65535;SDS011;52145;49.342;9.116;2023-05-10T03:10:45;1.83;;;1.35;;
65535;SDS011;52145;49.342;9.116;2023-05-10T03:13:24;2.30;;;1.50;;
65535;SDS011;52145;49.342;9.116;2023-05-10T03:15:58;2.20;;;1.60;;
65535;SDS011;52145;49.342;9.116;2023-05-10T03:18:29;3.17;;;1.55;;
65535;SDS011;52145;49.342;9.116;2023-05-10T03:21:01;3.75;;;2.05;;
65535;SDS011;52145;49.342;9.116;2023-05-10T03:23:33;2.13;;;1.83;;
65535;SDS011;52145;49.342;9.116;2023-05-10T03:26:00;2.58;;;1.80;;
65535;SDS011;52145;49.342;9.116;2023-05-10T03:28:26;3.50;;;2.17;;
65535;SDS011;52145;49.342;9.116;2023-05-10T03:30:53;2.83;;;2.30;;
65535;SDS011;52145;49.342;9.116;2023-05-10T03:33:19;2.83;;;2.30;;
65535;SDS011;52145;49.342;9.116;2023-05-10T03:35:45;3.58;;;2.72;;
65535;SDS011;52145;49.342;9.116;2023-05-10T03:38:12;3.17;;;2.78;;
65535;SDS011;52145;49.342;9.116;2023-05-10T03:40:38;3.92;;;3.05;;
65535;SDS011;52145;49.342;9.116;2023-05-10T03:43:04;4.30;;;2.83;;
65535;SDS011;52145;49.342;9.116;2023-05-10T03:45:30;4.15;;;2.92;;
65535;SDS011;52145;49.342;9.116;2023-05-10T03:47:56;4.47;;;2.92;;
65535;SDS011;52145;49.342;9.116;2023-05-10T03:50:22;4.97;;;3.00;;
65535;SDS011;52145;49.342;9.116;2023-05-10T03:52:48;3.28;;;2.70;;
65535;SDS011;52145;49.342;9.116;2023-05-10T03:55:14;3.88;;;3.30;;
65535;SDS011;52145;49.342;9.116;2023-05-10T03:57:41;3.65;;;2.97;;
65535;SDS011;52145;49.342;9.116;2023-05-10T04:00:07;5.75;;;3.08;;
65535;SDS011;52145;49.342;9.116;2023-05-10T04:02:33;4.90;;;3.08;;
65535;SDS011;52145;49.342;9.116;2023-05-10T04:04:59;4.35;;;3.22;;
65535;SDS011;52145;49.342;9.116;2023-05-10T04:07:25;3.85;;;3.05;;
65535;SDS011;52145;49.342;9.116;2023-05-10T04:09:51;3.83;;;2.92;;
65535;SDS011;52145;49.342;9.116;2023-05-10T04:12:17;3.97;;;2.85;;
65535;SDS011;52145;49.342;9.116;2023-05-10T04:14:43;3.38;;;2.95;;
65535;SDS011;52145;49.342;9.116;2023-05-10T04:17:09;3.55;;;2.90;;
65535;SDS011;52145;49.342;9.116;2023-05-10T04:19:35;3.88;;;3.17;;
65535;SDS011;52145;49.342;9.116;2023-05-10T04:22:02;4.55;;;3.15;;
65535;SDS011;52145;49.342;9.116;2023-05-10T04:24:28;4.75;;;2.97;;
65535;SDS011;52145;49.342;9.116;2023-05-10T04:26:54;5.40;;;3.30;;
65535;SDS011;52145;49.342;9.116;2023-05-10T04:29:20;3.78;;;3.17;;
65535;SDS011;52145;49.342;9.116;2023-05-10T04:31:46;4.85;;;3.10;;
65535;SDS011;52145;49.342;9.116;2023-05-10T04:34:13;3.55;;;2.97;;
65535;SDS011;52145;49.342;9.116;2023-05-10T04:36:39;3.70;;;3.05;;
65535;SDS011;52145;49.342;9.116;2023-05-10T04:39:05;3.72;;;3.05;;
65535;SDS011;52145;49.342;9.116;2023-05-10T04:41:31;5.07;;;3.22;;
65535;SDS011;52145;49.342;9.116;2023-05-10T04:43:57;3.97;;;2.80;;
65535;SDS011;52145;49.342;9.116;2023-05-10T04:46:23;4.15;;;2.95;;
65535;SDS011;52145;49.342;9.116;2023-05-10T04:48:49;4.38;;;2.53;;
65535;SDS011;52145;49.342;9.116;2023-05-10T04:51:15;4.47;;;3.10;;
65535;SDS011;52145;49.342;9.116;2023-05-10T04:53:41;4.80;;;3.22;;
65535;SDS011;52145;49.342;9.116;2023-05-10T04:56:07;4.50;;;2.40;;
65535;SDS011;52145;49.342;9.116;2023-05-10T04:58:33;2.88;;;2.47;;
65535;SDS011;52145;49.342;9.116;2023-05-10T05:01:05;4.07;;;2.33;;
65535;SDS011;52145;49.342;9.116;2023-05-10T05:03:35;2.45;;;2.05;;
65535;SDS011;52145;49.342;9.116;2023-05-10T05:06:01;3.17;;;2.25;;
65535;SDS011;52145;49.342;9.116;2023-05-10T05:08:27;5.80;;;2.40;;
65535;SDS011;52145;49.342;9.116;2023-05-10T05:10:53;3.03;;;2.30;;
65535;SDS011;52145;49.342;9.116;2023-05-10T05:13:19;4.40;;;2.35;;
65535;SDS011;52145;49.342;9.116;2023-05-10T05:15:45;2.85;;;2.30;;
65535;SDS011;52145;49.342;9.116;2023-05-10T05:18:11;5.20;;;2.45;;
65535;SDS011;52145;49.342;9.116;2023-05-10T05:20:37;5.05;;;2.75;;
65535;SDS011;52145;49.342;9.116;2023-05-10T05:23:03;4.80;;;2.30;;
65535;SDS011;52145;49.342;9.116;2023-05-10T05:25:29;3.33;;;2.72;;
65535;SDS011;52145;49.342;9.116;2023-05-10T05:27:55;7.18;;;2.40;;
65535;SDS011;52145;49.342;9.116;2023-05-10T05:30:21;4.60;;;2.72;;
65535;SDS011;52145;49.342;9.116;2023-05-10T05:32:47;5.78;;;2.83;;
65535;SDS011;52145;49.342;9.116;2023-05-10T05:35:13;5.25;;;3.55;;
65535;SDS011;52145;49.342;9.116;2023-05-10T05:37:39;3.97;;;3.10;;
65535;SDS011;52145;49.342;9.116;2023-05-10T05:40:05;5.63;;;3.30;;
65535;SDS011;52145;49.342;9.116;2023-05-10T05:42:31;4.07;;;2.83;;
65535;SDS011;52145;49.342;9.116;2023-05-10T05:44:58;3.53;;;2.95;;
65535;SDS011;52145;49.342;9.116;2023-05-10T05:47:24;3.70;;;2.80;;
65535;SDS011;52145;49.342;9.116;2023-05-10T05:49:50;7.68;;;2.65;;
65535;SDS011;52145;49.342;9.116;2023-05-10T05:52:16;3.75;;;3.10;;
65535;SDS011;52145;49.342;9.116;2023-05-10T05:54:42;4.50;;;2.60;;
65535;SDS011;52145;49.342;9.116;2023-05-10T05:57:08;4.22;;;2.90;;
65535;SDS011;52145;49.342;9.116;2023-05-10T05:59:34;6.47;;;3.05;;
65535;SDS011;52145;49.342;9.116;2023-05-10T06:02:00;6.13;;;2.55;;
65535;SDS011;52145;49.342;9.116;2023-05-10T06:04:26;3.83;;;2.63;;
65535;SDS011;52145;49.342;9.116;2023-05-10T06:06:52;4.95;;;2.83;;
65535;SDS011;52145;49.342;9.116;2023-05-10T06:09:18;5.95;;;2.95;;
65535;SDS011;52145;49.342;9.116;2023-05-10T06:11:44;4.15;;;2.90;;
65535;SDS011;52145;49.342;9.116;2023-05-10T06:14:10;5.70;;;2.40;;
65535;SDS011;52145;49.342;9.116;2023-05-10T06:16:36;4.60;;;2.58;;
65535;SDS011;52145;49.342;9.116;2023-05-10T06:19:02;4.97;;;2.38;;
65535;SDS011;52145;49.342;9.116;2023-05-10T06:21:28;3.35;;;2.30;;
65535;SDS011;52145;49.342;9.116;2023-05-10T06:23:55;3.97;;;2.38;;
65535;SDS011;52145;49.342;9.116;2023-05-10T06:26:21;4.25;;;2.08;;
65535;SDS011;52145;49.342;9.116;2023-05-10T06:28:47;5.32;;;2.17;;
65535;SDS011;52145;49.342;9.116;2023-05-10T06:31:13;2.88;;;2.00;;
65535;SDS011;52145;49.342;9.116;2023-05-10T06:33:39;4.07;;;2.63;;
65535;SDS011;52145;49.342;9.116;2023-05-10T06:36:05;5.40;;;2.40;;
65535;SDS011;52145;49.342;9.116;2023-05-10T06:38:31;3.80;;;2.25;;
65535;SDS011;52145;49.342;9.116;2023-05-10T06:40:57;3.03;;;2.08;;
65535;SDS011;52145;49.342;9.116;2023-05-10T06:43:23;5.82;;;2.63;;
65535;SDS011;52145;49.342;9.116;2023-05-10T06:45:49;6.22;;;2.53;;
65535;SDS011;52145;49.342;9.116;2023-05-10T06:48:16;3.15;;;2.55;;
65535;SDS011;52145;49.342;9.116;2023-05-10T06:50:42;4.20;;;2.60;;
65535;SDS011;52145;49.342;9.116;2023-05-10T06:53:08;4.47;;;2.75;;
65535;SDS011;52145;49.342;9.116;2023-05-10T06:55:34;3.67;;;2.78;;
65535;SDS011;52145;49.342;9.116;2023-05-10T06:58:00;5.30;;;3.40;;
65535;SDS011;52145;49.342;9.116;2023-05-10T07:00:27;3.25;;;2.33;;
65535;SDS011;52145;49.342;9.116;2023-05-10T07:02:52;3.17;;;2.30;;
65535;SDS011;52145;49.342;9.116;2023-05-10T07:05:18;3.13;;;2.35;;
65535;SDS011;52145;49.342;9.116;2023-05-10T07:07:44;3.50;;;2.05;;
65535;SDS011;52145;49.342;9.116;2023-05-10T07:10:11;2.63;;;1.85;;
65535;SDS011;52145;49.342;9.116;2023-05-10T07:12:36;2.42;;;1.75;;
65535;SDS011;52145;49.342;9.116;2023-05-10T07:15:03;2.60;;;1.60;;
65535;SDS011;52145;49.342;9.116;2023-05-10T07:17:29;3.55;;;1.85;;
65535;SDS011;52145;49.342;9.116;2023-05-10T07:19:55;1.65;;;1.48;;
65535;SDS011;52145;49.342;9.116;2023-05-10T07:22:21;2.78;;;1.85;;
65535;SDS011;52145;49.342;9.116;2023-05-10T07:24:47;2.67;;;1.83;;
65535;SDS011;52145;49.342;9.116;2023-05-10T07:27:13;4.07;;;2.13;;
65535;SDS011;52145;49.342;9.116;2023-05-10T07:29:39;1.92;;;1.67;;
65535;SDS011;52145;49.342;9.116;2023-05-10T07:32:05;2.00;;;1.77;;
65535;SDS011;52145;49.342;9.116;2023-05-10T07:34:31;4.10;;;2.05;;
65535;SDS011;52145;49.342;9.116;2023-05-10T07:36:58;2.65;;;1.77;;
65535;SDS011;52145;49.342;9.116;2023-05-10T07:39:24;3.08;;;1.80;;
65535;SDS011;52145;49.342;9.116;2023-05-10T07:41:50;2.92;;;1.90;;
65535;SDS011;52145;49.342;9.116;2023-05-10T07:44:16;2.53;;;1.60;;
65535;SDS011;52145;49.342;9.116;2023-05-10T07:46:44;5.28;;;2.70;;
65535;SDS011;52145;49.342;9.116;2023-05-10T07:49:10;3.55;;;1.50;;
65535;SDS011;52145;49.342;9.116;2023-05-10T07:51:35;4.72;;;1.80;;
65535;SDS011;52145;49.342;9.116;2023-05-10T07:54:01;3.90;;;1.98;;
65535;SDS011;52145;49.342;9.116;2023-05-10T07:56:28;2.58;;;1.73;;
65535;SDS011;52145;49.342;9.116;2023-05-10T07:58:57;3.75;;;1.55;;
65535;SDS011;52145;49.342;9.116;2023-05-10T08:01:24;3.72;;;1.83;;
65535;SDS011;52145;49.342;9.116;2023-05-10T08:03:50;2.65;;;1.50;;
65535;SDS011;52145;49.342;9.116;2023-05-10T08:06:19;4.10;;;1.85;;
65535;SDS011;52145;49.342;9.116;2023-05-10T08:08:45;3.22;;;1.52;;
65535;SDS011;52145;49.342;9.116;2023-05-10T08:11:14;4.85;;;2.00;;
65535;SDS011;52145;49.342;9.116;2023-05-10T08:13:40;2.80;;;1.50;;
65535;SDS011;52145;49.342;9.116;2023-05-10T08:16:06;4.32;;;1.83;;
65535;SDS011;52145;49.342;9.116;2023-05-10T08:18:32;3.42;;;1.75;;
65535;SDS011;52145;49.342;9.116;2023-05-10T08:20:58;3.33;;;1.60;;
65535;SDS011;52145;49.342;9.116;2023-05-10T08:23:24;2.25;;;1.75;;
65535;SDS011;52145;49.342;9.116;2023-05-10T08:25:50;3.20;;;1.48;;
65535;SDS011;52145;49.342;9.116;2023-05-10T08:28:16;5.78;;;2.05;;
65535;SDS011;52145;49.342;9.116;2023-05-10T08:30:42;3.65;;;1.80;;
65535;SDS011;52145;49.342;9.116;2023-05-10T08:33:08;5.85;;;1.50;;
65535;SDS011;52145;49.342;9.116;2023-05-10T08:35:34;2.50;;;1.55;;
65535;SDS011;52145;49.342;9.116;2023-05-10T08:38:00;2.67;;;1.63;;
65535;SDS011;52145;49.342;9.116;2023-05-10T08:40:26;2.42;;;1.30;;
65535;SDS011;52145;49.342;9.116;2023-05-10T08:43:05;3.53;;;1.40;;
65535;SDS011;52145;49.342;9.116;2023-05-10T08:45:32;4.60;;;1.65;;
65535;SDS011;52145;49.342;9.116;2023-05-10T08:48:01;2.05;;;1.40;;
65535;SDS011;52145;49.342;9.116;2023-05-10T08:50:27;4.47;;;1.50;;
65535;SDS011;52145;49.342;9.116;2023-05-10T08:52:53;2.60;;;1.55;;
65535;SDS011;52145;49.342;9.116;2023-05-10T08:55:21;2.28;;;1.25;;
65535;SDS011;52145;49.342;9.116;2023-05-10T08:57:48;1.52;;;1.42;;
65535;SDS011;52145;49.342;9.116;2023-05-10T09:00:14;1.45;;;1.30;;
65535;SDS011;52145;49.342;9.116;2023-05-10T09:02:41;2.38;;;1.20;;
65535;SDS011;52145;49.342;9.116;2023-05-10T09:05:07;3.00;;;1.30;;
65535;SDS011;52145;49.342;9.116;2023-05-10T09:07:34;1.92;;;1.13;;
65535;SDS011;52145;49.342;9.116;2023-05-10T09:10:00;3.25;;;1.23;;
65535;SDS011;52145;49.342;9.116;2023-05-10T09:12:26;2.60;;;1.35;;
65535;SDS011;52145;49.342;9.116;2023-05-10T09:14:52;4.57;;;2.05;;
65535;SDS011;52145;49.342;9.116;2023-05-10T09:17:19;4.15;;;1.40;;
65535;SDS011;52145;49.342;9.116;2023-05-10T09:19:46;3.05;;;1.40;;
65535;SDS011;52145;49.342;9.116;2023-05-10T09:22:12;2.45;;;1.30;;
65535;SDS011;52145;49.342;9.116;2023-05-10T09:24:38;3.05;;;1.30;;
65535;SDS011;52145;49.342;9.116;2023-05-10T09:27:09;2.33;;;1.55;;
65535;SDS011;52145;49.342;9.116;2023-05-10T09:29:41;4.50;;;1.25;;
65535;SDS011;52145;49.342;9.116;2023-05-10T09:32:08;2.78;;;1.27;;
65535;SDS011;52145;49.342;9.116;2023-05-10T09:34:34;2.50;;;1.15;;
65535;SDS011;52145;49.342;9.116;2023-05-10T09:37:01;1.90;;;1.05;;
65535;SDS011;52145;49.342;9.116;2023-05-10T09:39:34;3.28;;;1.27;;
65535;SDS011;52145;49.342;9.116;2023-05-10T09:42:04;3.28;;;1.35;;
65535;SDS011;52145;49.342;9.116;2023-05-10T09:44:30;3.75;;;1.60;;
65535;SDS011;52145;49.342;9.116;2023-05-10T09:46:56;2.03;;;1.10;;
65535;SDS011;52145;49.342;9.116;2023-05-10T09:49:23;2.40;;;1.05;;
65535;SDS011;52145;49.342;9.116;2023-05-10T09:52:05;3.50;;;1.35;;
65535;SDS011;52145;49.342;9.116;2023-05-10T09:54:32;1.35;;;0.90;;
65535;SDS011;52145;49.342;9.116;2023-05-10T09:56:58;1.40;;;0.93;;
65535;SDS011;52145;49.342;9.116;2023-05-10T09:59:25;1.52;;;0.95;;
65535;SDS011;52145;49.342;9.116;2023-05-10T10:01:52;1.02;;;0.90;;
65535;SDS011;52145;49.342;9.116;2023-05-10T10:04:19;1.85;;;0.98;;
65535;SDS011;52145;49.342;9.116;2023-05-10T10:06:46;4.63;;;1.75;;
65535;SDS011;52145;49.342;9.116;2023-05-10T10:09:12;2.60;;;1.40;;
65535;SDS011;52145;49.342;9.116;2023-05-10T10:11:39;2.00;;;1.08;;
65535;SDS011;52145;49.342;9.116;2023-05-10T10:14:06;1.23;;;1.00;;
65535;SDS011;52145;49.342;9.116;2023-05-10T10:16:32;2.67;;;1.00;;
65535;SDS011;52145;49.342;9.116;2023-05-10T10:18:58;1.00;;;0.90;;
65535;SDS011;52145;49.342;9.116;2023-05-10T10:21:24;2.65;;;1.20;;
65535;SDS011;52145;49.342;9.116;2023-05-10T10:23:50;2.03;;;0.98;;
65535;SDS011;52145;49.342;9.116;2023-05-10T10:26:17;1.80;;;1.00;;
65535;SDS011;52145;49.342;9.116;2023-05-10T10:33:55;2.08;;;1.17;;
65535;SDS011;52145;49.342;9.116;2023-05-10T10:36:22;2.78;;;1.10;;
65535;SDS011;52145;49.342;9.116;2023-05-10T10:47:03;2.95;;;0.90;;
65535;SDS011;52145;49.342;9.116;2023-05-10T10:49:50;1.40;;;0.88;;
65535;SDS011;52145;49.342;9.116;2023-05-10T10:52:25;2.28;;;0.98;;
65535;SDS011;52145;49.342;9.116;2023-05-10T10:57:29;1.00;;;0.70;;
65535;SDS011;52145;49.342;9.116;2023-05-10T11:05:27;1.13;;;0.88;;
65535;SDS011;52145;49.342;9.116;2023-05-10T11:08:09;0.82;;;0.73;;
65535;SDS011;52145;49.342;9.116;2023-05-10T11:10:35;0.90;;;0.70;;
65535;SDS011;52145;49.342;9.116;2023-05-10T11:13:02;2.45;;;1.00;;
65535;SDS011;52145;49.342;9.116;2023-05-10T11:15:38;2.88;;;0.80;;
65535;SDS011;52145;49.342;9.116;2023-05-10T11:18:17;1.83;;;0.60;;
65535;SDS011;52145;49.342;9.116;2023-05-10T11:20:43;1.85;;;0.70;;
65535;SDS011;52145;49.342;9.116;2023-05-10T11:23:12;2.72;;;0.82;;
65535;SDS011;52145;49.342;9.116;2023-05-10T11:25:41;0.63;;;0.60;;
65535;SDS011;52145;49.342;9.116;2023-05-10T11:28:07;1.08;;;0.63;;
65535;SDS011;52145;49.342;9.116;2023-05-10T11:30:34;1.83;;;0.60;;
65535;SDS011;52145;49.342;9.116;2023-05-10T11:33:00;2.72;;;0.68;;
65535;SDS011;52145;49.342;9.116;2023-05-10T11:35:27;0.73;;;0.73;;
65535;SDS011;52145;49.342;9.116;2023-05-10T11:37:53;3.85;;;0.80;;
65535;SDS011;52145;49.342;9.116;2023-05-10T11:40:21;1.83;;;0.60;;
65535;SDS011;52145;49.342;9.116;2023-05-10T11:42:49;2.08;;;0.80;;
65535;SDS011;52145;49.342;9.116;2023-05-10T11:45:15;0.77;;;0.65;;
65535;SDS011;52145;49.342;9.116;2023-05-10T11:47:41;0.80;;;0.57;;
65535;SDS011;52145;49.342;9.116;2023-05-10T11:50:08;0.80;;;0.60;;
65535;SDS011;52145;49.342;9.116;2023-05-10T11:52:37;4.95;;;1.10;;
65535;SDS011;52145;49.342;9.116;2023-05-10T11:55:03;0.95;;;0.70;;
65535;SDS011;52145;49.342;9.116;2023-05-10T11:57:29;1.77;;;1.10;;
65535;SDS011;52145;49.342;9.116;2023-05-10T11:59:56;2.67;;;0.80;;
65535;SDS011;52145;49.342;9.116;2023-05-10T12:02:22;1.10;;;0.73;;
65535;SDS011;52145;49.342;9.116;2023-05-10T12:04:48;3.08;;;0.60;;
65535;SDS011;52145;49.342;9.116;2023-05-10T12:07:15;2.38;;;1.08;;
65535;SDS011;52145;49.342;9.116;2023-05-10T12:09:44;2.60;;;0.80;;
65535;SDS011;52145;49.342;9.116;2023-05-10T12:12:15;2.58;;;0.90;;
65535;SDS011;52145;49.342;9.116;2023-05-10T12:14:41;2.38;;;0.93;;
65535;SDS011;52145;49.342;9.116;2023-05-10T12:17:11;4.40;;;1.10;;
65535;SDS011;52145;49.342;9.116;2023-05-10T12:19:38;1.17;;;1.00;;
65535;SDS011;52145;49.342;9.116;2023-05-10T12:22:05;2.60;;;0.75;;
65535;SDS011;52145;49.342;9.116;2023-05-10T12:24:33;0.90;;;0.70;;
65535;SDS011;52145;49.342;9.116;2023-05-10T12:26:59;1.27;;;0.90;;
65535;SDS011;52145;49.342;9.116;2023-05-10T12:29:25;1.73;;;1.02;;
65535;SDS011;52145;49.342;9.116;2023-05-10T12:31:55;1.85;;;0.80;;
65535;SDS011;52145;49.342;9.116;2023-05-10T12:34:30;1.35;;;0.80;;
65535;SDS011;52145;49.342;9.116;2023-05-10T12:36:56;4.30;;;0.80;;
65535;SDS011;52145;49.342;9.116;2023-05-10T12:39:22;3.95;;;1.50;;
65535;SDS011;52145;49.342;9.116;2023-05-10T12:41:48;3.25;;;0.88;;
65535;SDS011;52145;49.342;9.116;2023-05-10T12:44:14;3.25;;;1.08;;
65535;SDS011;52145;49.342;9.116;2023-05-10T12:46:40;5.43;;;1.20;;
65535;SDS011;52145;49.342;9.116;2023-05-10T12:49:06;1.10;;;0.70;;
65535;SDS011;52145;49.342;9.116;2023-05-10T12:51:31;3.22;;;1.08;;
65535;SDS011;52145;49.342;9.116;2023-05-10T12:53:57;2.72;;;0.88;;
65535;SDS011;52145;49.342;9.116;2023-05-10T12:56:23;6.15;;;1.13;;
65535;SDS011;52145;49.342;9.116;2023-05-10T12:58:49;2.33;;;0.80;;
65535;SDS011;52145;49.342;9.116;2023-05-10T13:01:15;2.65;;;0.90;;
65535;SDS011;52145;49.342;9.116;2023-05-10T13:03:41;2.92;;;0.90;;
65535;SDS011;52145;49.342;9.116;2023-05-10T13:06:10;4.53;;;0.85;;
65535;SDS011;52145;49.342;9.116;2023-05-10T13:08:38;2.40;;;0.80;;
65535;SDS011;52145;49.342;9.116;2023-05-10T13:11:05;2.15;;;0.80;;
65535;SDS011;52145;49.342;9.116;2023-05-10T13:13:31;3.55;;;0.77;;
65535;SDS011;52145;49.342;9.116;2023-05-10T13:15:57;2.35;;;0.70;;
65535;SDS011;52145;49.342;9.116;2023-05-10T13:18:23;1.00;;;0.60;;
65535;SDS011;52145;49.342;9.116;2023-05-10T13:20:49;6.30;;;1.10;;
65535;SDS011;52145;49.342;9.116;2023-05-10T13:23:15;2.28;;;0.70;;
65535;SDS011;52145;49.342;9.116;2023-05-10T13:25:41;3.75;;;0.88;;
65535;SDS011;52145;49.342;9.116;2023-05-10T13:28:07;1.83;;;0.90;;
65535;SDS011;52145;49.342;9.116;2023-05-10T13:30:33;1.85;;;0.70;;
65535;SDS011;52145;49.342;9.116;2023-05-10T13:32:59;2.70;;;0.80;;
65535;SDS011;52145;49.342;9.116;2023-05-10T13:35:25;4.32;;;1.77;;
65535;SDS011;52145;49.342;9.116;2023-05-10T13:37:51;4.00;;;1.15;;
65535;SDS011;52145;49.342;9.116;2023-05-10T13:40:18;2.92;;;0.85;;
65535;SDS011;52145;49.342;9.116;2023-05-10T13:42:44;4.40;;;1.08;;
65535;SDS011;52145;49.342;9.116;2023-05-10T13:45:10;3.35;;;1.10;;
65535;SDS011;52145;49.342;9.116;2023-05-10T13:47:37;3.60;;;1.10;;
65535;SDS011;52145;49.342;9.116;2023-05-10T13:50:03;2.15;;;1.20;;
65535;SDS011;52145;49.342;9.116;2023-05-10T13:52:29;3.35;;;1.30;;
65535;SDS011;52145;49.342;9.116;2023-05-10T13:54:55;9.15;;;1.10;;
65535;SDS011;52145;49.342;9.116;2023-05-10T13:57:21;3.15;;;1.00;;
65535;SDS011;52145;49.342;9.116;2023-05-10T13:59:47;8.45;;;1.30;;
65535;SDS011;52145;49.342;9.116;2023-05-10T14:02:14;2.45;;;0.80;;
65535;SDS011;52145;49.342;9.116;2023-05-10T14:04:39;2.03;;;0.80;;
65535;SDS011;52145;49.342;9.116;2023-05-10T14:07:06;1.50;;;0.77;;
65535;SDS011;52145;49.342;9.116;2023-05-10T14:09:32;1.67;;;0.88;;
65535;SDS011;52145;49.342;9.116;2023-05-10T14:11:57;4.07;;;0.85;;
65535;SDS011;52145;49.342;9.116;2023-05-10T14:14:23;2.72;;;0.90;;
65535;SDS011;52145;49.342;9.116;2023-05-10T14:16:49;3.17;;;0.70;;
65535;SDS011;52145;49.342;9.116;2023-05-10T14:19:16;1.85;;;1.08;;
65535;SDS011;52145;49.342;9.116;2023-05-10T14:21:42;2.45;;;0.90;;
65535;SDS011;52145;49.342;9.116;2023-05-10T14:24:08;1.45;;;0.88;;
65535;SDS011;52145;49.342;9.116;2023-05-10T14:26:34;6.43;;;0.90;;
65535;SDS011;52145;49.342;9.116;2023-05-10T14:29:00;3.38;;;0.90;;
65535;SDS011;52145;49.342;9.116;2023-05-10T14:31:26;1.05;;;0.90;;
65535;SDS011;52145;49.342;9.116;2023-05-10T14:33:52;3.20;;;1.00;;
65535;SDS011;52145;49.342;9.116;2023-05-10T14:36:18;1.45;;;0.82;;
65535;SDS011;52145;49.342;9.116;2023-05-10T14:38:44;2.10;;;0.82;;
65535;SDS011;52145;49.342;9.116;2023-05-10T14:41:10;2.55;;;0.85;;
65535;SDS011;52145;49.342;9.116;2023-05-10T14:43:39;5.80;;;0.98;;
65535;SDS011;52145;49.342;9.116;2023-05-10T14:46:05;3.15;;;1.00;;
65535;SDS011;52145;49.342;9.116;2023-05-10T14:48:31;2.28;;;0.80;;
65535;SDS011;52145;49.342;9.116;2023-05-10T14:50:57;4.05;;;1.52;;
65535;SDS011;52145;49.342;9.116;2023-05-10T14:53:23;2.80;;;0.90;;
65535;SDS011;52145;49.342;9.116;2023-05-10T14:55:49;3.85;;;0.98;;
65535;SDS011;52145;49.342;9.116;2023-05-10T14:58:15;1.30;;;0.80;;
65535;SDS011;52145;49.342;9.116;2023-05-10T15:00:41;1.95;;;0.70;;
65535;SDS011;52145;49.342;9.116;2023-05-10T15:03:08;1.73;;;0.93;;
65535;SDS011;52145;49.342;9.116;2023-05-10T15:05:34;4.53;;;0.85;;
65535;SDS011;52145;49.342;9.116;2023-05-10T15:08:02;1.95;;;0.85;;
65535;SDS011;52145;49.342;9.116;2023-05-10T15:10:28;4.45;;;0.90;;